sensor_id;sensor_type;location;lat;lon;timestamp;P1;durP1;ratioP1;P2;durP2;ratioP2
73693;SDS011;61997;53.974;11.670;2023-07-22T00:01:32;7.15;;;4.00;;
73693;SDS011;61997;53.974;11.670;2023-07-22T00:03:58;7.03;;;3.72;;
73693;SDS011;61997;53.974;11.670;2023-07-22T00:06:23;6.22;;;3.88;;
73693;SDS011;61997;53.974;11.670;2023-07-22T00:08:49;4.57;;;3.33;;
73693;SDS011;61997;53.974;11.670;2023-07-22T00:11:14;6.25;;;3.38;;
73693;SDS011;61997;53.974;11.670;2023-07-22T00:13:40;7.25;;;3.80;;
73693;SDS011;61997;53.974;11.670;2023-07-22T00:16:05;6.32;;;3.67;;
73693;SDS011;61997;53.974;11.670;2023-07-22T00:18:33;7.38;;;3.42;;
73693;SDS011;61997;53.974;11.670;2023-07-22T00:20:58;7.03;;;3.38;;
73693;SDS011;61997;53.974;11.670;2023-07-22T00:23:24;6.70;;;3.53;;
73693;SDS011;61997;53.974;11.670;2023-07-22T00:25:49;6.32;;;3.97;;
73693;SDS011;61997;53.974;11.670;2023-07-22T00:28:15;4.63;;;3.15;;
73693;SDS011;61997;53.974;11.670;2023-07-22T00:30:41;5.53;;;3.47;;
73693;SDS011;61997;53.974;11.670;2023-07-22T00:33:06;6.25;;;3.45;;
73693;SDS011;61997;53.974;11.670;2023-07-22T00:35:32;4.65;;;3.25;;
73693;SDS011;61997;53.974;11.670;2023-07-22T00:37:58;4.70;;;3.22;;
73693;SDS011;61997;53.974;11.670;2023-07-22T00:40:25;6.78;;;3.30;;
73693;SDS011;61997;53.974;11.670;2023-07-22T00:42:50;6.55;;;3.50;;
73693;SDS011;61997;53.974;11.670;2023-07-22T00:45:16;5.43;;;3.10;;
73693;SDS011;61997;53.974;11.670;2023-07-22T00:47:41;5.72;;;3.47;;
73693;SDS011;61997;53.974;11.670;2023-07-22T00:50:07;6.28;;;3.75;;
73693;SDS011;61997;53.974;11.670;2023-07-22T00:52:36;5.45;;;3.50;;
73693;SDS011;61997;53.974;11.670;2023-07-22T00:55:03;4.68;;;3.05;;
73693;SDS011;61997;53.974;11.670;2023-07-22T00:57:30;6.13;;;3.45;;
73693;SDS011;61997;53.974;11.670;2023-07-22T00:59:55;5.88;;;3.13;;
73693;SDS011;61997;53.974;11.670;2023-07-22T01:02:21;5.70;;;3.42;;
73693;SDS011;61997;53.974;11.670;2023-07-22T01:04:47;4.85;;;3.15;;
73693;SDS011;61997;53.974;11.670;2023-07-22T01:07:13;4.88;;;3.08;;
73693;SDS011;61997;53.974;11.670;2023-07-22T01:09:39;6.93;;;3.60;;
73693;SDS011;61997;53.974;11.670;2023-07-22T01:12:06;5.57;;;3.42;;
73693;SDS011;61997;53.974;11.670;2023-07-22T01:14:33;5.10;;;3.10;;
73693;SDS011;61997;53.974;11.670;2023-07-22T01:17:00;6.00;;;3.30;;
73693;SDS011;61997;53.974;11.670;2023-07-22T01:19:27;5.45;;;3.20;;
73693;SDS011;61997;53.974;11.670;2023-07-22T01:21:52;5.55;;;2.67;;
73693;SDS011;61997;53.974;11.670;2023-07-22T01:24:18;5.05;;;2.92;;
73693;SDS011;61997;53.974;11.670;2023-07-22T01:26:44;5.60;;;3.45;;
73693;SDS011;61997;53.974;11.670;2023-07-22T01:29:09;6.38;;;3.10;;
73693;SDS011;61997;53.974;11.670;2023-07-22T01:31:34;4.72;;;2.97;;
73693;SDS011;61997;53.974;11.670;2023-07-22T01:34:01;4.78;;;3.05;;
73693;SDS011;61997;53.974;11.670;2023-07-22T01:36:26;5.78;;;3.20;;
73693;SDS011;61997;53.974;11.670;2023-07-22T01:38:52;5.70;;;2.88;;
73693;SDS011;61997;53.974;11.670;2023-07-22T01:41:17;6.10;;;2.72;;
73693;SDS011;61997;53.974;11.670;2023-07-22T01:43:42;4.65;;;3.00;;
73693;SDS011;61997;53.974;11.670;2023-07-22T01:46:08;4.47;;;3.10;;
73693;SDS011;61997;53.974;11.670;2023-07-22T01:48:34;4.38;;;2.60;;
73693;SDS011;61997;53.974;11.670;2023-07-22T01:50:59;4.68;;;3.05;;
73693;SDS011;61997;53.974;11.670;2023-07-22T01:53:24;4.88;;;2.90;;
73693;SDS011;61997;53.974;11.670;2023-07-22T01:55:50;5.25;;;2.72;;
73693;SDS011;61997;53.974;11.670;2023-07-22T01:58:15;5.55;;;3.05;;
73693;SDS011;61997;53.974;11.670;2023-07-22T02:00:41;5.30;;;3.22;;
73693;SDS011;61997;53.974;11.670;2023-07-22T02:03:06;4.88;;;3.15;;
73693;SDS011;61997;53.974;11.670;2023-07-22T02:05:31;4.82;;;2.80;;
73693;SDS011;61997;53.974;11.670;2023-07-22T02:07:57;4.43;;;2.20;;
73693;SDS011;61997;53.974;11.670;2023-07-22T02:10:22;4.85;;;2.75;;
73693;SDS011;61997;53.974;11.670;2023-07-22T02:12:48;5.20;;;2.85;;
73693;SDS011;61997;53.974;11.670;2023-07-22T02:15:13;4.35;;;3.03;;
73693;SDS011;61997;53.974;11.670;2023-07-22T02:17:39;4.30;;;2.40;;
73693;SDS011;61997;53.974;11.670;2023-07-22T02:20:04;5.57;;;3.00;;
73693;SDS011;61997;53.974;11.670;2023-07-22T02:22:30;5.97;;;3.25;;
73693;SDS011;61997;53.974;11.670;2023-07-22T02:24:56;5.00;;;2.90;;
73693;SDS011;61997;53.974;11.670;2023-07-22T02:27:21;4.45;;;2.83;;
73693;SDS011;61997;53.974;11.670;2023-07-22T02:29:46;5.97;;;3.30;;
73693;SDS011;61997;53.974;11.670;2023-07-22T02:32:12;4.85;;;3.28;;
73693;SDS011;61997;53.974;11.670;2023-07-22T02:34:37;5.00;;;2.65;;
73693;SDS011;61997;53.974;11.670;2023-07-22T02:37:03;4.82;;;2.60;;
73693;SDS011;61997;53.974;11.670;2023-07-22T02:39:29;5.13;;;2.88;;
73693;SDS011;61997;53.974;11.670;2023-07-22T02:41:54;5.43;;;3.08;;
73693;SDS011;61997;53.974;11.670;2023-07-22T02:44:20;5.95;;;3.33;;
73693;SDS011;61997;53.974;11.670;2023-07-22T02:46:45;4.68;;;2.90;;
73693;SDS011;61997;53.974;11.670;2023-07-22T02:49:11;5.50;;;3.65;;
73693;SDS011;61997;53.974;11.670;2023-07-22T02:51:36;3.97;;;2.75;;
73693;SDS011;61997;53.974;11.670;2023-07-22T02:54:02;4.57;;;2.72;;
73693;SDS011;61997;53.974;11.670;2023-07-22T02:56:28;4.07;;;2.45;;
73693;SDS011;61997;53.974;11.670;2023-07-22T02:58:54;4.35;;;2.72;;
73693;SDS011;61997;53.974;11.670;2023-07-22T03:01:19;4.85;;;2.72;;
73693;SDS011;61997;53.974;11.670;2023-07-22T03:03:44;4.05;;;2.20;;
73693;SDS011;61997;53.974;11.670;2023-07-22T03:06:10;3.97;;;2.65;;
73693;SDS011;61997;53.974;11.670;2023-07-22T03:08:35;3.13;;;2.17;;
73693;SDS011;61997;53.974;11.670;2023-07-22T03:11:01;5.40;;;2.97;;
73693;SDS011;61997;53.974;11.670;2023-07-22T03:13:26;4.97;;;2.35;;
73693;SDS011;61997;53.974;11.670;2023-07-22T03:15:55;4.28;;;2.50;;
73693;SDS011;61997;53.974;11.670;2023-07-22T03:18:21;4.38;;;2.55;;
73693;SDS011;61997;53.974;11.670;2023-07-22T03:20:46;3.78;;;2.28;;
73693;SDS011;61997;53.974;11.670;2023-07-22T03:23:12;3.42;;;2.45;;
73693;SDS011;61997;53.974;11.670;2023-07-22T03:25:37;4.47;;;2.50;;
73693;SDS011;61997;53.974;11.670;2023-07-22T03:28:03;5.28;;;2.78;;
73693;SDS011;61997;53.974;11.670;2023-07-22T03:30:30;6.88;;;2.78;;
73693;SDS011;61997;53.974;11.670;2023-07-22T03:32:55;4.20;;;2.50;;
73693;SDS011;61997;53.974;11.670;2023-07-22T03:35:22;3.58;;;2.78;;
73693;SDS011;61997;53.974;11.670;2023-07-22T03:37:48;4.07;;;2.38;;
73693;SDS011;61997;53.974;11.670;2023-07-22T03:40:14;3.97;;;2.28;;
73693;SDS011;61997;53.974;11.670;2023-07-22T03:42:47;4.68;;;2.50;;
73693;SDS011;61997;53.974;11.670;2023-07-22T03:45:17;3.80;;;2.42;;
73693;SDS011;61997;53.974;11.670;2023-07-22T03:47:44;3.72;;;2.08;;
73693;SDS011;61997;53.974;11.670;2023-07-22T03:50:11;4.28;;;2.35;;
73693;SDS011;61997;53.974;11.670;2023-07-22T03:52:36;4.00;;;2.42;;
73693;SDS011;61997;53.974;11.670;2023-07-22T03:55:02;3.25;;;2.40;;
73693;SDS011;61997;53.974;11.670;2023-07-22T03:57:30;3.03;;;2.17;;
73693;SDS011;61997;53.974;11.670;2023-07-22T03:59:56;4.75;;;2.42;;
73693;SDS011;61997;53.974;11.670;2023-07-22T04:02:22;4.13;;;2.30;;
73693;SDS011;61997;53.974;11.670;2023-07-22T04:04:48;3.90;;;2.60;;
73693;SDS011;61997;53.974;11.670;2023-07-22T04:07:15;4.55;;;2.40;;
73693;SDS011;61997;53.974;11.670;2023-07-22T04:09:41;3.33;;;2.17;;
73693;SDS011;61997;53.974;11.670;2023-07-22T04:12:06;3.70;;;2.53;;
73693;SDS011;61997;53.974;11.670;2023-07-22T04:14:32;3.67;;;2.35;;
73693;SDS011;61997;53.974;11.670;2023-07-22T04:16:58;3.53;;;2.50;;
73693;SDS011;61997;53.974;11.670;2023-07-22T04:19:23;3.78;;;1.90;;
73693;SDS011;61997;53.974;11.670;2023-07-22T04:21:49;4.38;;;2.35;;
73693;SDS011;61997;53.974;11.670;2023-07-22T04:24:15;4.60;;;2.40;;
73693;SDS011;61997;53.974;11.670;2023-07-22T04:26:42;3.78;;;2.17;;
73693;SDS011;61997;53.974;11.670;2023-07-22T04:29:08;4.28;;;2.30;;
73693;SDS011;61997;53.974;11.670;2023-07-22T04:31:34;2.85;;;2.00;;
73693;SDS011;61997;53.974;11.670;2023-07-22T04:34:00;2.45;;;2.00;;
73693;SDS011;61997;53.974;11.670;2023-07-22T04:36:25;3.30;;;2.38;;
73693;SDS011;61997;53.974;11.670;2023-07-22T04:38:51;4.15;;;2.38;;
73693;SDS011;61997;53.974;11.670;2023-07-22T04:41:16;3.90;;;2.40;;
73693;SDS011;61997;53.974;11.670;2023-07-22T04:43:41;3.78;;;2.40;;
73693;SDS011;61997;53.974;11.670;2023-07-22T04:46:07;4.15;;;2.10;;
73693;SDS011;61997;53.974;11.670;2023-07-22T04:48:33;4.05;;;1.95;;
73693;SDS011;61997;53.974;11.670;2023-07-22T04:50:59;3.55;;;2.45;;
73693;SDS011;61997;53.974;11.670;2023-07-22T04:53:25;5.28;;;2.55;;
73693;SDS011;61997;53.974;11.670;2023-07-22T04:55:50;2.83;;;2.13;;
73693;SDS011;61997;53.974;11.670;2023-07-22T04:58:16;4.13;;;2.63;;
73693;SDS011;61997;53.974;11.670;2023-07-22T05:00:41;3.75;;;2.42;;
73693;SDS011;61997;53.974;11.670;2023-07-22T05:03:08;4.47;;;2.20;;
73693;SDS011;61997;53.974;11.670;2023-07-22T05:05:34;3.55;;;2.35;;
73693;SDS011;61997;53.974;11.670;2023-07-22T05:08:01;3.50;;;2.25;;
73693;SDS011;61997;53.974;11.670;2023-07-22T05:10:27;3.63;;;2.33;;
73693;SDS011;61997;53.974;11.670;2023-07-22T05:12:54;3.45;;;2.22;;
73693;SDS011;61997;53.974;11.670;2023-07-22T05:15:19;3.53;;;2.00;;
73693;SDS011;61997;53.974;11.670;2023-07-22T05:17:45;2.78;;;2.10;;
73693;SDS011;61997;53.974;11.670;2023-07-22T05:20:11;3.75;;;2.20;;
73693;SDS011;61997;53.974;11.670;2023-07-22T05:22:38;4.05;;;2.00;;
73693;SDS011;61997;53.974;11.670;2023-07-22T05:25:05;2.97;;;1.95;;
73693;SDS011;61997;53.974;11.670;2023-07-22T05:27:32;2.85;;;2.10;;
73693;SDS011;61997;53.974;11.670;2023-07-22T05:29:58;4.32;;;2.28;;
73693;SDS011;61997;53.974;11.670;2023-07-22T05:32:23;4.28;;;2.35;;
73693;SDS011;61997;53.974;11.670;2023-07-22T05:34:48;2.90;;;2.00;;
73693;SDS011;61997;53.974;11.670;2023-07-22T05:37:14;3.83;;;2.10;;
73693;SDS011;61997;53.974;11.670;2023-07-22T05:39:39;3.67;;;2.40;;
73693;SDS011;61997;53.974;11.670;2023-07-22T05:42:05;2.78;;;1.85;;
73693;SDS011;61997;53.974;11.670;2023-07-22T05:44:31;3.30;;;2.30;;
73693;SDS011;61997;53.974;11.670;2023-07-22T05:46:57;3.35;;;2.13;;
73693;SDS011;61997;53.974;11.670;2023-07-22T05:49:24;2.28;;;1.75;;
73693;SDS011;61997;53.974;11.670;2023-07-22T05:51:50;2.97;;;2.00;;
73693;SDS011;61997;53.974;11.670;2023-07-22T05:54:15;3.45;;;2.10;;
73693;SDS011;61997;53.974;11.670;2023-07-22T05:56:42;4.38;;;2.10;;
73693;SDS011;61997;53.974;11.670;2023-07-22T05:59:08;4.00;;;2.13;;
73693;SDS011;61997;53.974;11.670;2023-07-22T06:01:34;3.33;;;2.05;;
73693;SDS011;61997;53.974;11.670;2023-07-22T06:04:03;3.53;;;1.80;;
73693;SDS011;61997;53.974;11.670;2023-07-22T06:06:29;3.25;;;1.85;;
73693;SDS011;61997;53.974;11.670;2023-07-22T06:08:54;3.15;;;2.10;;
73693;SDS011;61997;53.974;11.670;2023-07-22T06:11:20;3.15;;;1.85;;
73693;SDS011;61997;53.974;11.670;2023-07-22T06:13:46;2.90;;;1.85;;
73693;SDS011;61997;53.974;11.670;2023-07-22T06:16:12;2.30;;;1.67;;
73693;SDS011;61997;53.974;11.670;2023-07-22T06:18:38;2.92;;;1.95;;
73693;SDS011;61997;53.974;11.670;2023-07-22T06:21:03;2.53;;;1.67;;
73693;SDS011;61997;53.974;11.670;2023-07-22T06:23:29;3.40;;;2.08;;
73693;SDS011;61997;53.974;11.670;2023-07-22T06:25:55;3.05;;;2.30;;
73693;SDS011;61997;53.974;11.670;2023-07-22T06:28:20;4.93;;;2.10;;
73693;SDS011;61997;53.974;11.670;2023-07-22T06:30:45;4.47;;;2.00;;
73693;SDS011;61997;53.974;11.670;2023-07-22T06:33:11;3.20;;;1.90;;
73693;SDS011;61997;53.974;11.670;2023-07-22T06:35:36;2.70;;;1.85;;
73693;SDS011;61997;53.974;11.670;2023-07-22T06:38:02;3.13;;;2.00;;
73693;SDS011;61997;53.974;11.670;2023-07-22T06:40:28;3.42;;;1.80;;
73693;SDS011;61997;53.974;11.670;2023-07-22T06:42:53;3.72;;;2.20;;
73693;SDS011;61997;53.974;11.670;2023-07-22T06:45:19;3.15;;;1.90;;
73693;SDS011;61997;53.974;11.670;2023-07-22T06:47:44;3.03;;;1.98;;
73693;SDS011;61997;53.974;11.670;2023-07-22T06:50:11;2.65;;;2.00;;
73693;SDS011;61997;53.974;11.670;2023-07-22T06:52:37;3.05;;;1.73;;
73693;SDS011;61997;53.974;11.670;2023-07-22T06:55:03;3.33;;;2.10;;
73693;SDS011;61997;53.974;11.670;2023-07-22T06:57:29;2.90;;;2.05;;
73693;SDS011;61997;53.974;11.670;2023-07-22T06:59:55;3.20;;;1.92;;
73693;SDS011;61997;53.974;11.670;2023-07-22T07:02:21;4.05;;;2.40;;
73693;SDS011;61997;53.974;11.670;2023-07-22T07:04:47;3.67;;;2.00;;
73693;SDS011;61997;53.974;11.670;2023-07-22T07:07:12;2.95;;;1.83;;
73693;SDS011;61997;53.974;11.670;2023-07-22T07:09:40;2.97;;;2.08;;
73693;SDS011;61997;53.974;11.670;2023-07-22T07:12:06;3.47;;;1.98;;
73693;SDS011;61997;53.974;11.670;2023-07-22T07:14:32;3.50;;;1.85;;
73693;SDS011;61997;53.974;11.670;2023-07-22T07:16:58;4.15;;;2.10;;
73693;SDS011;61997;53.974;11.670;2023-07-22T07:19:24;3.35;;;1.98;;
73693;SDS011;61997;53.974;11.670;2023-07-22T07:21:51;3.33;;;2.00;;
73693;SDS011;61997;53.974;11.670;2023-07-22T07:24:17;3.80;;;2.00;;
73693;SDS011;61997;53.974;11.670;2023-07-22T07:26:42;3.40;;;1.88;;
73693;SDS011;61997;53.974;11.670;2023-07-22T07:29:08;3.50;;;1.90;;
73693;SDS011;61997;53.974;11.670;2023-07-22T07:31:34;2.65;;;1.60;;
73693;SDS011;61997;53.974;11.670;2023-07-22T07:34:00;3.60;;;2.03;;
73693;SDS011;61997;53.974;11.670;2023-07-22T07:36:25;3.35;;;2.00;;
73693;SDS011;61997;53.974;11.670;2023-07-22T07:38:51;3.80;;;1.58;;
73693;SDS011;61997;53.974;11.670;2023-07-22T07:41:16;2.85;;;1.90;;
73693;SDS011;61997;53.974;11.670;2023-07-22T07:43:42;3.13;;;2.10;;
73693;SDS011;61997;53.974;11.670;2023-07-22T07:46:15;3.75;;;1.90;;
73693;SDS011;61997;53.974;11.670;2023-07-22T07:48:52;3.40;;;1.75;;
73693;SDS011;61997;53.974;11.670;2023-07-22T07:51:22;3.13;;;1.80;;
73693;SDS011;61997;53.974;11.670;2023-07-22T07:53:50;2.65;;;1.95;;
73693;SDS011;61997;53.974;11.670;2023-07-22T07:56:16;4.28;;;1.77;;
73693;SDS011;61997;53.974;11.670;2023-07-22T07:58:43;3.15;;;1.60;;
73693;SDS011;61997;53.974;11.670;2023-07-22T08:01:09;3.20;;;1.77;;
73693;SDS011;61997;53.974;11.670;2023-07-22T08:03:35;3.40;;;1.67;;
73693;SDS011;61997;53.974;11.670;2023-07-22T08:06:01;3.05;;;2.00;;
73693;SDS011;61997;53.974;11.670;2023-07-22T08:08:27;3.13;;;1.85;;
73693;SDS011;61997;53.974;11.670;2023-07-22T08:11:09;2.42;;;1.70;;
73693;SDS011;61997;53.974;11.670;2023-07-22T08:13:39;2.17;;;1.33;;
73693;SDS011;61997;53.974;11.670;2023-07-22T08:16:05;2.05;;;1.30;;
73693;SDS011;61997;53.974;11.670;2023-07-22T08:18:32;2.17;;;1.48;;
73693;SDS011;61997;53.974;11.670;2023-07-22T08:20:58;2.70;;;1.73;;
73693;SDS011;61997;53.974;11.670;2023-07-22T08:23:24;2.50;;;1.80;;
73693;SDS011;61997;53.974;11.670;2023-07-22T08:25:50;2.35;;;1.40;;
73693;SDS011;61997;53.974;11.670;2023-07-22T08:28:16;2.92;;;1.58;;
73693;SDS011;61997;53.974;11.670;2023-07-22T08:30:41;3.03;;;1.58;;
73693;SDS011;61997;53.974;11.670;2023-07-22T08:33:08;2.33;;;1.55;;
73693;SDS011;61997;53.974;11.670;2023-07-22T08:35:38;2.35;;;1.73;;
73693;SDS011;61997;53.974;11.670;2023-07-22T08:38:07;3.03;;;1.80;;
73693;SDS011;61997;53.974;11.670;2023-07-22T08:40:34;3.08;;;1.60;;
73693;SDS011;61997;53.974;11.670;2023-07-22T08:43:03;2.58;;;1.60;;
73693;SDS011;61997;53.974;11.670;2023-07-22T08:45:30;2.67;;;1.50;;
73693;SDS011;61997;53.974;11.670;2023-07-22T08:47:58;3.20;;;1.73;;
73693;SDS011;61997;53.974;11.670;2023-07-22T08:50:26;3.42;;;1.52;;
73693;SDS011;61997;53.974;11.670;2023-07-22T08:52:57;3.22;;;1.60;;
73693;SDS011;61997;53.974;11.670;2023-07-22T08:55:37;2.58;;;1.50;;
73693;SDS011;61997;53.974;11.670;2023-07-22T08:58:07;2.35;;;1.70;;
73693;SDS011;61997;53.974;11.670;2023-07-22T09:00:34;2.10;;;1.50;;
73693;SDS011;61997;53.974;11.670;2023-07-22T09:03:00;3.05;;;1.45;;
73693;SDS011;61997;53.974;11.670;2023-07-22T09:05:26;2.95;;;1.50;;
73693;SDS011;61997;53.974;11.670;2023-07-22T09:07:52;3.33;;;1.60;;
73693;SDS011;61997;53.974;11.670;2023-07-22T09:10:18;2.30;;;1.50;;
73693;SDS011;61997;53.974;11.670;2023-07-22T09:12:44;1.98;;;1.23;;
73693;SDS011;61997;53.974;11.670;2023-07-22T09:15:10;3.47;;;1.50;;
73693;SDS011;61997;53.974;11.670;2023-07-22T09:17:37;2.42;;;1.52;;
73693;SDS011;61997;53.974;11.670;2023-07-22T09:20:03;2.40;;;1.38;;
73693;SDS011;61997;53.974;11.670;2023-07-22T09:22:31;1.63;;;1.20;;
73693;SDS011;61997;53.974;11.670;2023-07-22T09:27:48;2.72;;;1.50;;
73693;SDS011;61997;53.974;11.670;2023-07-22T09:30:30;3.38;;;1.42;;
73693;SDS011;61997;53.974;11.670;2023-07-22T09:32:59;2.13;;;1.23;;
73693;SDS011;61997;53.974;11.670;2023-07-22T09:35:29;2.55;;;1.42;;
73693;SDS011;61997;53.974;11.670;2023-07-22T09:37:55;1.90;;;1.35;;
73693;SDS011;61997;53.974;11.670;2023-07-22T09:40:22;2.03;;;1.20;;
73693;SDS011;61997;53.974;11.670;2023-07-22T09:42:50;1.90;;;1.30;;
73693;SDS011;61997;53.974;11.670;2023-07-22T09:45:16;2.03;;;1.40;;
73693;SDS011;61997;53.974;11.670;2023-07-22T09:47:44;2.50;;;1.20;;
73693;SDS011;61997;53.974;11.670;2023-07-22T09:50:14;3.30;;;1.40;;
73693;SDS011;61997;53.974;11.670;2023-07-22T09:52:45;2.20;;;1.30;;
73693;SDS011;61997;53.974;11.670;2023-07-22T09:55:15;1.80;;;1.10;;
73693;SDS011;61997;53.974;11.670;2023-07-22T09:57:43;2.95;;;1.40;;
73693;SDS011;61997;53.974;11.670;2023-07-22T10:00:15;2.33;;;1.20;;
73693;SDS011;61997;53.974;11.670;2023-07-22T10:02:42;2.08;;;1.23;;
73693;SDS011;61997;53.974;11.670;2023-07-22T10:05:15;1.73;;;1.20;;
73693;SDS011;61997;53.974;11.670;2023-07-22T10:07:46;1.67;;;1.02;;
73693;SDS011;61997;53.974;11.670;2023-07-22T10:10:13;2.20;;;1.30;;
73693;SDS011;61997;53.974;11.670;2023-07-22T10:12:41;1.80;;;1.15;;
73693;SDS011;61997;53.974;11.670;2023-07-22T10:15:09;2.95;;;1.35;;
73693;SDS011;61997;53.974;11.670;2023-07-22T10:17:39;2.63;;;1.50;;
73693;SDS011;61997;53.974;11.670;2023-07-22T10:20:05;1.77;;;1.10;;
73693;SDS011;61997;53.974;11.670;2023-07-22T10:22:35;2.92;;;1.10;;
73693;SDS011;61997;53.974;11.670;2023-07-22T10:25:05;2.50;;;1.20;;
73693;SDS011;61997;53.974;11.670;2023-07-22T10:27:32;1.85;;;1.00;;
73693;SDS011;61997;53.974;11.670;2023-07-22T10:29:58;2.10;;;1.30;;
73693;SDS011;61997;53.974;11.670;2023-07-22T10:32:24;2.03;;;1.10;;
73693;SDS011;61997;53.974;11.670;2023-07-22T10:34:49;1.95;;;1.10;;
73693;SDS011;61997;53.974;11.670;2023-07-22T10:37:17;2.25;;;1.10;;
73693;SDS011;61997;53.974;11.670;2023-07-22T10:39:43;2.33;;;1.00;;
73693;SDS011;61997;53.974;11.670;2023-07-22T10:42:08;2.10;;;1.30;;
73693;SDS011;61997;53.974;11.670;2023-07-22T10:44:40;1.80;;;1.25;;
73693;SDS011;61997;53.974;11.670;2023-07-22T10:47:05;2.90;;;1.42;;
73693;SDS011;61997;53.974;11.670;2023-07-22T10:49:43;1.95;;;1.02;;
73693;SDS011;61997;53.974;11.670;2023-07-22T10:52:14;1.90;;;1.13;;
73693;SDS011;61997;53.974;11.670;2023-07-22T10:54:40;2.35;;;1.25;;
73693;SDS011;61997;53.974;11.670;2023-07-22T11:02:07;2.47;;;1.17;;
73693;SDS011;61997;53.974;11.670;2023-07-22T11:04:32;2.30;;;1.20;;
73693;SDS011;61997;53.974;11.670;2023-07-22T11:07:00;2.05;;;1.10;;
73693;SDS011;61997;53.974;11.670;2023-07-22T11:11:56;1.63;;;1.17;;
73693;SDS011;61997;53.974;11.670;2023-07-22T11:14:24;1.60;;;1.10;;
73693;SDS011;61997;53.974;11.670;2023-07-22T11:16:50;2.25;;;1.13;;
73693;SDS011;61997;53.974;11.670;2023-07-22T11:19:17;2.15;;;1.20;;
73693;SDS011;61997;53.974;11.670;2023-07-22T11:21:44;2.08;;;1.10;;
73693;SDS011;61997;53.974;11.670;2023-07-22T11:24:10;2.33;;;1.27;;
73693;SDS011;61997;53.974;11.670;2023-07-22T11:26:36;1.92;;;1.00;;
73693;SDS011;61997;53.974;11.670;2023-07-22T11:29:03;2.38;;;1.10;;
73693;SDS011;61997;53.974;11.670;2023-07-22T11:31:39;2.20;;;1.13;;
73693;SDS011;61997;53.974;11.670;2023-07-22T11:34:11;1.98;;;1.20;;
73693;SDS011;61997;53.974;11.670;2023-07-22T11:36:38;2.92;;;1.20;;
73693;SDS011;61997;53.974;11.670;2023-07-22T11:39:09;3.85;;;1.45;;
73693;SDS011;61997;53.974;11.670;2023-07-22T11:41:40;2.05;;;1.20;;
73693;SDS011;61997;53.974;11.670;2023-07-22T11:44:10;3.30;;;1.48;;
73693;SDS011;61997;53.974;11.670;2023-07-22T11:47:13;3.15;;;1.50;;
73693;SDS011;61997;53.974;11.670;2023-07-22T11:52:02;3.95;;;1.60;;
73693;SDS011;61997;53.974;11.670;2023-07-22T11:54:29;2.53;;;1.38;;
73693;SDS011;61997;53.974;11.670;2023-07-22T11:56:57;3.45;;;1.27;;
73693;SDS011;61997;53.974;11.670;2023-07-22T11:59:32;3.22;;;1.30;;
73693;SDS011;61997;53.974;11.670;2023-07-22T12:02:00;2.55;;;1.30;;
73693;SDS011;61997;53.974;11.670;2023-07-22T12:04:26;3.08;;;1.40;;
73693;SDS011;61997;53.974;11.670;2023-07-22T12:06:52;1.92;;;1.17;;
73693;SDS011;61997;53.974;11.670;2023-07-22T12:09:17;2.55;;;1.30;;
73693;SDS011;61997;53.974;11.670;2023-07-22T12:11:54;3.10;;;1.40;;
73693;SDS011;61997;53.974;11.670;2023-07-22T12:14:31;3.15;;;1.20;;
73693;SDS011;61997;53.974;11.670;2023-07-22T12:16:58;3.55;;;1.50;;
73693;SDS011;61997;53.974;11.670;2023-07-22T12:19:24;2.88;;;1.23;;
73693;SDS011;61997;53.974;11.670;2023-07-22T12:21:52;7.13;;;1.95;;
73693;SDS011;61997;53.974;11.670;2023-07-22T12:24:18;4.03;;;1.48;;
73693;SDS011;61997;53.974;11.670;2023-07-22T12:26:43;3.13;;;1.48;;
73693;SDS011;61997;53.974;11.670;2023-07-22T12:29:08;2.20;;;1.27;;
73693;SDS011;61997;53.974;11.670;2023-07-22T12:31:34;3.72;;;1.20;;
73693;SDS011;61997;53.974;11.670;2023-07-22T12:34:00;2.15;;;1.10;;
73693;SDS011;61997;53.974;11.670;2023-07-22T12:36:25;1.58;;;0.98;;
73693;SDS011;61997;53.974;11.670;2023-07-22T12:38:51;3.35;;;1.50;;
73693;SDS011;61997;53.974;11.670;2023-07-22T12:41:16;3.38;;;1.20;;
73693;SDS011;61997;53.974;11.670;2023-07-22T12:43:42;2.55;;;1.00;;
73693;SDS011;61997;53.974;11.670;2023-07-22T12:46:07;2.00;;;1.20;;
73693;SDS011;61997;53.974;11.670;2023-07-22T12:48:32;1.27;;;0.90;;
73693;SDS011;61997;53.974;11.670;2023-07-22T12:50:58;1.75;;;1.23;;
73693;SDS011;61997;53.974;11.670;2023-07-22T12:53:24;2.28;;;1.00;;
73693;SDS011;61997;53.974;11.670;2023-07-22T12:55:49;2.17;;;0.98;;
73693;SDS011;61997;53.974;11.670;2023-07-22T12:58:15;3.90;;;1.23;;
73693;SDS011;61997;53.974;11.670;2023-07-22T13:00:40;2.55;;;1.20;;
73693;SDS011;61997;53.974;11.670;2023-07-22T13:03:06;2.10;;;1.00;;
73693;SDS011;61997;53.974;11.670;2023-07-22T13:05:31;2.53;;;1.10;;
73693;SDS011;61997;53.974;11.670;2023-07-22T13:07:56;1.83;;;0.90;;
73693;SDS011;61997;53.974;11.670;2023-07-22T13:10:23;2.67;;;1.10;;
73693;SDS011;61997;53.974;11.670;2023-07-22T13:12:50;3.22;;;1.20;;
73693;SDS011;61997;53.974;11.670;2023-07-22T13:15:15;2.45;;;1.23;;
73693;SDS011;61997;53.974;11.670;2023-07-22T13:17:41;1.65;;;0.95;;
73693;SDS011;61997;53.974;11.670;2023-07-22T13:20:07;5.00;;;1.10;;
73693;SDS011;61997;53.974;11.670;2023-07-22T13:22:33;2.72;;;1.20;;
73693;SDS011;61997;53.974;11.670;2023-07-22T13:24:59;3.33;;;0.95;;
73693;SDS011;61997;53.974;11.670;2023-07-22T13:27:25;1.85;;;1.00;;
73693;SDS011;61997;53.974;11.670;2023-07-22T13:29:50;1.60;;;1.00;;
73693;SDS011;61997;53.974;11.670;2023-07-22T13:32:15;2.72;;;1.55;;
73693;SDS011;61997;53.974;11.670;2023-07-22T13:34:41;3.72;;;1.25;;
73693;SDS011;61997;53.974;11.670;2023-07-22T13:37:06;1.77;;;1.00;;
73693;SDS011;61997;53.974;11.670;2023-07-22T13:39:31;2.75;;;1.10;;
73693;SDS011;61997;53.974;11.670;2023-07-22T13:41:57;2.63;;;0.93;;
73693;SDS011;61997;53.974;11.670;2023-07-22T13:44:22;2.10;;;1.00;;
73693;SDS011;61997;53.974;11.670;2023-07-22T13:46:48;2.58;;;1.00;;
73693;SDS011;61997;53.974;11.670;2023-07-22T13:49:13;5.75;;;1.20;;
73693;SDS011;61997;53.974;11.670;2023-07-22T13:51:40;1.70;;;0.88;;
73693;SDS011;61997;53.974;11.670;2023-07-22T13:54:06;1.98;;;0.98;;
73693;SDS011;61997;53.974;11.670;2023-07-22T13:56:31;2.15;;;0.90;;
73693;SDS011;61997;53.974;11.670;2023-07-22T13:58:56;2.75;;;1.05;;
73693;SDS011;61997;53.974;11.670;2023-07-22T14:01:23;1.80;;;0.90;;
73693;SDS011;61997;53.974;11.670;2023-07-22T14:03:48;2.88;;;0.90;;
73693;SDS011;61997;53.974;11.670;2023-07-22T14:06:14;1.95;;;0.90;;
73693;SDS011;61997;53.974;11.670;2023-07-22T14:08:39;1.40;;;0.90;;
73693;SDS011;61997;53.974;11.670;2023-07-22T14:11:05;2.35;;;0.95;;
73693;SDS011;61997;53.974;11.670;2023-07-22T14:13:30;1.90;;;0.82;;
73693;SDS011;61997;53.974;11.670;2023-07-22T14:15:55;1.42;;;0.90;;
73693;SDS011;61997;53.974;11.670;2023-07-22T14:18:21;1.45;;;1.00;;
73693;SDS011;61997;53.974;11.670;2023-07-22T14:20:46;1.73;;;1.00;;
73693;SDS011;61997;53.974;11.670;2023-07-22T14:23:12;1.75;;;0.90;;
73693;SDS011;61997;53.974;11.670;2023-07-22T14:25:37;1.88;;;1.00;;
73693;SDS011;61997;53.974;11.670;2023-07-22T14:28:03;1.80;;;0.95;;
73693;SDS011;61997;53.974;11.670;2023-07-22T14:30:28;1.58;;;1.00;;
73693;SDS011;61997;53.974;11.670;2023-07-22T14:32:54;1.20;;;0.80;;
73693;SDS011;61997;53.974;11.670;2023-07-22T14:35:20;2.92;;;0.95;;
73693;SDS011;61997;53.974;11.670;2023-07-22T14:37:46;1.88;;;0.88;;
73693;SDS011;61997;53.974;11.670;2023-07-22T14:40:12;2.47;;;1.00;;
73693;SDS011;61997;53.974;11.670;2023-07-22T14:42:37;1.85;;;0.80;;